OMO weather

Mostar International Airport
Mostar, Federacija Bosna i Hercegovina, Bosnia and Herzegovina

Public forecast

Using degrees Celsius for public forecast. Weather courtesy of forecast.io.

Current aviation weather report (METAR) for Mostar International Airport

Retrieved 2020/01/29 04:00 UTC (20 minutes ago):

LQMO 290400Z 29003KT 180V320 9999 FEW015 OVC050 08/07 Q1008

Aviation forecast (TAF) for Mostar International Airport

Retrieved 2020-01-29 00:06 UTC (4 hours ago):

TAF LQMO 282300Z 2900/2924 17006KT 9999 SCT030 BKN060 TX10/2912Z TN06/2906Z TEMPO 2900/2906 4000 RA BR PROB40 TEMPO 2912/2916 30010KT 5000 SHRA FEW010 FEW030TCU BKN040